createdAt,value
2022-11-15T00:02:00.557Z,33.99
2022-11-15T00:04:04.955Z,34.02
2022-11-15T00:06:09.310Z,33.92
2022-11-15T00:08:13.975Z,33.95
2022-11-15T00:10:18.356Z,34.02
2022-11-15T00:12:22.717Z,33.93
2022-11-15T00:14:27.156Z,34.01
2022-11-15T00:16:31.514Z,33.87
2022-11-15T00:18:36.064Z,33.83
2022-11-15T00:20:40.458Z,33.91
2022-11-15T00:22:44.805Z,33.92
2022-11-15T00:24:49.183Z,33.8
2022-11-15T00:26:53.573Z,33.81
2022-11-15T00:28:57.937Z,33.81
2022-11-15T00:31:02.278Z,33.84
2022-11-15T00:33:06.653Z,33.83
2022-11-15T00:35:11.055Z,33.8
2022-11-15T00:37:15.386Z,34.02
2022-11-15T00:39:19.739Z,34.25
2022-11-15T00:41:24.126Z,34.21
2022-11-15T00:43:28.779Z,34.23
2022-11-15T00:45:33.494Z,34.25
2022-11-15T00:47:37.891Z,34.28
2022-11-15T00:49:42.256Z,34.4
2022-11-15T00:51:46.633Z,34.4
2022-11-15T00:53:51.019Z,34.35
2022-11-15T00:55:55.405Z,34.64
2022-11-15T00:57:59.794Z,34.51
2022-11-15T01:00:04.158Z,34.48
2022-11-15T01:02:08.501Z,34.49
2022-11-15T01:04:12.898Z,34.37
2022-11-15T01:06:17.362Z,34.37
2022-11-15T01:08:21.755Z,34.37
2022-11-15T01:10:26.092Z,34.42
2022-11-15T01:12:30.452Z,34.32
2022-11-15T01:14:34.868Z,34.17
2022-11-15T01:16:39.253Z,34.21
2022-11-15T01:18:43.591Z,34.27
2022-11-15T01:20:47.950Z,34.22
2022-11-15T01:22:52.279Z,34.17
2022-11-15T01:24:56.680Z,33.99
2022-11-15T01:27:01.160Z,34.04
2022-11-15T01:29:05.632Z,33.85
2022-11-15T01:31:10.018Z,33.84
2022-11-15T01:33:14.374Z,33.71
2022-11-15T01:35:18.769Z,33.71
2022-11-15T01:37:23.104Z,33.72
2022-11-15T01:39:27.450Z,33.69
2022-11-15T01:41:31.837Z,33.58
2022-11-15T01:43:36.633Z,33.58
2022-11-15T01:45:41.004Z,33.48
2022-11-15T01:47:45.373Z,33.52
2022-11-15T01:49:49.829Z,33.46
2022-11-15T01:51:54.169Z,33.4
2022-11-15T01:53:58.523Z,33.33
2022-11-15T01:56:02.939Z,33.23
2022-11-15T01:58:07.323Z,33.34
2022-11-15T02:00:11.722Z,33.31
2022-11-15T02:02:16.063Z,33.21
2022-11-15T02:04:20.429Z,33.28
2022-11-15T02:06:24.811Z,33.21
2022-11-15T02:08:29.203Z,33.26
2022-11-15T02:10:33.578Z,33.28
2022-11-15T02:12:37.947Z,33.25
2022-11-15T02:14:42.298Z,33.27
2022-11-15T02:16:46.654Z,33.25
2022-11-15T02:18:51.035Z,33.33
2022-11-15T02:20:55.439Z,33.24
2022-11-15T02:22:59.938Z,33.24
2022-11-15T02:25:04.291Z,33.3
2022-11-15T02:27:08.669Z,33.5
2022-11-15T02:29:13.054Z,33.39
2022-11-15T02:31:17.406Z,33.29
2022-11-15T02:33:21.772Z,33.28
2022-11-15T02:35:26.153Z,33.22
2022-11-15T02:37:30.527Z,33.23
2022-11-15T02:39:34.903Z,33.12
2022-11-15T02:41:39.413Z,33.32
2022-11-15T02:43:43.804Z,33.11
2022-11-15T02:45:48.151Z,33.14
2022-11-15T02:47:52.484Z,33.1
2022-11-15T02:49:56.896Z,33.11
2022-11-15T02:52:01.327Z,33.04
2022-11-15T02:54:05.724Z,33.02
2022-11-15T02:56:10.058Z,32.98
2022-11-15T02:58:14.407Z,32.99
2022-11-15T03:00:18.780Z,33.01
2022-11-15T03:02:23.124Z,32.99
2022-11-15T03:04:27.495Z,32.97
2022-11-15T03:06:31.820Z,32.98
2022-11-15T03:08:36.198Z,32.94
2022-11-15T03:10:40.601Z,32.84
2022-11-15T03:12:45.008Z,32.88
2022-11-15T03:14:49.381Z,32.86
2022-11-15T03:16:53.734Z,32.88
2022-11-15T03:18:58.214Z,32.99
2022-11-15T03:21:02.683Z,33.06
2022-11-15T03:23:07.050Z,32.95
2022-11-15T03:25:11.473Z,32.98
2022-11-15T03:27:15.872Z,33.02
2022-11-15T03:29:20.274Z,33
2022-11-15T03:31:24.658Z,33.01
2022-11-15T03:33:29.569Z,33.04
2022-11-15T03:35:34.220Z,33.01
2022-11-15T03:37:38.547Z,32.96
2022-11-15T03:39:42.925Z,32.96
2022-11-15T03:41:47.278Z,32.89
2022-11-15T03:43:51.602Z,32.9
2022-11-15T03:45:55.993Z,32.98
2022-11-15T03:48:00.325Z,32.92
2022-11-15T03:50:04.680Z,32.86
2022-11-15T03:52:09.055Z,32.93
2022-11-15T03:54:13.424Z,32.89
2022-11-15T03:56:17.797Z,32.84
2022-11-15T03:58:22.150Z,32.88
2022-11-15T04:00:26.522Z,32.82
2022-11-15T04:02:30.945Z,32.82
2022-11-15T04:04:35.293Z,32.91
2022-11-15T04:06:39.808Z,32.81
2022-11-15T04:08:44.208Z,32.77
2022-11-15T04:10:48.787Z,32.83
2022-11-15T04:12:53.176Z,32.67
2022-11-15T04:14:57.588Z,32.58
2022-11-15T04:17:01.933Z,32.72
2022-11-15T04:19:06.322Z,32.74
2022-11-15T04:21:10.699Z,32.68
2022-11-15T04:23:15.119Z,32.64
2022-11-15T04:25:32.359Z,32.78
2022-11-15T04:27:37.035Z,32.86
2022-11-15T04:29:41.385Z,32.77
2022-11-15T04:31:45.758Z,32.84
2022-11-15T04:33:50.117Z,32.72
2022-11-15T04:35:54.457Z,32.75
2022-11-15T04:37:58.827Z,32.72
2022-11-15T04:40:03.215Z,32.69
2022-11-15T04:42:07.592Z,32.72
2022-11-15T04:44:11.973Z,32.72
2022-11-15T04:46:16.336Z,32.65
2022-11-15T04:48:20.690Z,32.6
2022-11-15T04:50:25.034Z,32.63
2022-11-15T04:52:29.406Z,32.71
2022-11-15T04:54:33.779Z,32.8
2022-11-15T04:56:38.165Z,32.83
2022-11-15T04:58:42.558Z,32.74
2022-11-15T05:00:47.197Z,32.73
2022-11-15T05:02:51.573Z,32.75
2022-11-15T05:04:55.919Z,32.74
2022-11-15T05:07:00.538Z,32.66
2022-11-15T05:09:05.000Z,32.69
2022-11-15T05:11:09.342Z,32.73
2022-11-15T05:13:13.730Z,32.8
2022-11-15T05:15:18.125Z,32.85
2022-11-15T05:17:22.462Z,32.85
2022-11-15T05:19:26.873Z,33.03
2022-11-15T05:21:31.246Z,32.73
2022-11-15T05:23:36.256Z,32.7
2022-11-15T05:25:40.620Z,32.8
2022-11-15T05:27:45.002Z,32.6
2022-11-15T05:29:49.385Z,32.58
2022-11-15T05:31:53.707Z,32.66
2022-11-15T05:33:58.197Z,32.58
2022-11-15T05:36:02.571Z,32.69
2022-11-15T05:38:07.283Z,32.49
2022-11-15T05:40:11.690Z,32.48
2022-11-15T05:42:16.045Z,32.48
2022-11-15T05:44:20.429Z,32.48
2022-11-15T05:46:24.811Z,32.44
2022-11-15T05:48:29.170Z,32.41
2022-11-15T05:50:33.549Z,32.44
2022-11-15T05:52:37.922Z,32.54
2022-11-15T05:54:42.376Z,32.52
2022-11-15T05:56:46.754Z,32.57
2022-11-15T05:58:53.491Z,33.07
2022-11-15T06:00:59.954Z,32.81
2022-11-15T06:03:04.306Z,32.69
2022-11-15T06:05:08.681Z,32.69
2022-11-15T06:07:13.251Z,32.64
2022-11-15T06:09:17.665Z,32.65
2022-11-15T06:11:22.051Z,32.58
2022-11-15T06:13:26.426Z,33.63
2022-11-15T06:15:30.830Z,33.93
2022-11-15T06:17:35.221Z,34.07
2022-11-15T06:19:39.568Z,34.58
2022-11-15T06:21:43.961Z,34.7
2022-11-15T06:23:48.336Z,34.64
2022-11-15T06:25:52.685Z,35.41
2022-11-15T06:27:57.052Z,35.52
2022-11-15T06:30:01.432Z,35.6
2022-11-15T06:32:05.840Z,35.85
2022-11-15T06:34:10.186Z,36.33
2022-11-15T06:36:19.458Z,37.04
2022-11-15T06:38:23.813Z,37.33
2022-11-15T06:40:28.195Z,38.09
2022-11-15T06:42:32.575Z,38.88
2022-11-15T06:44:36.930Z,38.88
2022-11-15T06:46:41.372Z,38.73
2022-11-15T06:48:45.753Z,38.87
2022-11-15T06:50:50.154Z,39.02
2022-11-15T06:52:54.528Z,39.27
2022-11-15T06:54:58.874Z,39.39
2022-11-15T06:57:03.270Z,39.29
2022-11-15T06:59:07.675Z,39.47
2022-11-15T07:01:12.298Z,39.22
2022-11-15T07:03:16.656Z,39.21
2022-11-15T07:05:20.973Z,39.04
2022-11-15T07:07:25.687Z,38.98
2022-11-15T07:09:30.113Z,39.06
2022-11-15T07:11:34.508Z,39.01
2022-11-15T07:13:39.050Z,39.06
2022-11-15T07:15:43.403Z,39
2022-11-15T07:17:47.794Z,39.25
2022-11-15T07:19:52.224Z,39.3
2022-11-15T07:21:56.601Z,39.15
2022-11-15T07:24:01.006Z,39.18
2022-11-15T07:26:05.883Z,39.19
2022-11-15T07:28:10.933Z,39.28
2022-11-15T07:30:17.642Z,39.29
2022-11-15T07:32:22.024Z,39.31
2022-11-15T07:34:26.384Z,39.29
2022-11-15T07:36:30.751Z,39.22
2022-11-15T07:38:43.588Z,39.16
2022-11-15T07:40:48.004Z,38.9
2022-11-15T07:42:52.454Z,39.08
2022-11-15T07:44:56.794Z,39.17
2022-11-15T07:47:01.296Z,39.09
2022-11-15T07:49:05.810Z,39.24
2022-11-15T07:51:16.000Z,39.19
2022-11-15T07:53:20.315Z,39.22
2022-11-15T07:55:24.608Z,39.11
2022-11-15T07:57:28.999Z,39.1
2022-11-15T07:59:33.375Z,39.14
2022-11-15T08:01:38.274Z,39.15
2022-11-15T08:03:42.666Z,39.1
2022-11-15T08:05:47.181Z,39.14
2022-11-15T08:07:54.585Z,39.07
2022-11-15T08:09:58.980Z,39.04
2022-11-15T08:12:03.319Z,39.02
2022-11-15T08:14:07.777Z,38.99
2022-11-15T08:16:12.180Z,38.96
2022-11-15T08:18:16.638Z,39.01
2022-11-15T08:20:21.057Z,39.01
2022-11-15T08:22:25.431Z,38.96
2022-11-15T08:24:29.820Z,39.07
2022-11-15T08:26:34.221Z,38.98
2022-11-15T08:28:38.622Z,38.88
2022-11-15T08:30:43.142Z,38.87
2022-11-15T08:32:47.617Z,38.92
2022-11-15T08:34:51.980Z,38.88
2022-11-15T08:36:56.384Z,38.92
2022-11-15T08:39:00.759Z,38.95
2022-11-15T08:41:05.137Z,38.87
2022-11-15T08:43:09.500Z,38.88
2022-11-15T08:45:13.859Z,38.91
2022-11-15T08:47:18.224Z,38.87
2022-11-15T08:49:22.629Z,38.86
2022-11-15T08:51:27.008Z,38.84
2022-11-15T08:53:31.383Z,38.83
2022-11-15T08:55:35.785Z,38.81
2022-11-15T08:57:40.240Z,38.77
2022-11-15T08:59:44.594Z,38.74
2022-11-15T09:01:49.376Z,38.33
2022-11-15T09:03:53.812Z,38.48
2022-11-15T09:05:58.179Z,38.67
2022-11-15T09:08:45.869Z,38.61
2022-11-15T09:10:50.382Z,38.65
2022-11-15T09:12:54.782Z,38.6
2022-11-15T09:14:59.202Z,38.6
2022-11-15T09:17:03.925Z,38.59
2022-11-15T09:19:13.683Z,38.59
2022-11-15T09:21:18.071Z,38.56
2022-11-15T09:23:22.460Z,38.53
2022-11-15T09:25:26.863Z,38.58
2022-11-15T09:27:31.242Z,38.62
2022-11-15T09:29:35.669Z,38.57
2022-11-15T09:31:40.076Z,38.68
2022-11-15T09:33:44.441Z,38.8
2022-11-15T09:35:48.911Z,38.92
2022-11-15T09:37:58.251Z,38.9
2022-11-15T09:40:02.617Z,38.99
2022-11-15T09:42:06.978Z,39.01
2022-11-15T09:44:11.392Z,39.01
2022-11-15T09:46:15.867Z,38.88
2022-11-15T09:48:20.268Z,38.91
2022-11-15T09:50:24.611Z,38.83
2022-11-15T09:52:29.019Z,38.91
2022-11-15T09:54:57.162Z,38.8
2022-11-15T09:57:01.586Z,38.77
2022-11-15T09:59:05.945Z,38.73
2022-11-15T10:01:10.631Z,38.71
2022-11-15T10:03:15.074Z,38.71
2022-11-15T10:05:19.511Z,38.75
2022-11-15T10:07:24.457Z,38.74
2022-11-15T10:09:28.856Z,38.75
2022-11-15T10:11:41.777Z,38.73
2022-11-15T10:13:46.133Z,38.68
2022-11-15T10:15:50.589Z,38.67
2022-11-15T10:17:55.080Z,38.6
2022-11-15T10:20:06.968Z,38.56
2022-11-15T10:22:11.388Z,38.51
2022-11-15T10:24:15.744Z,38.46
2022-11-15T10:26:20.110Z,38.5
2022-11-15T10:28:24.526Z,38.43
2022-11-15T10:30:28.897Z,38.43
2022-11-15T10:32:33.311Z,38.46
2022-11-15T10:34:37.821Z,38.36
2022-11-15T10:36:51.297Z,38.34
2022-11-15T10:38:55.668Z,38.33
2022-11-15T10:41:00.052Z,38.34
2022-11-15T10:43:04.511Z,38.29
2022-11-15T10:45:08.788Z,38.27
2022-11-15T10:47:13.148Z,38.25
2022-11-15T10:49:17.451Z,38.21
2022-11-15T10:51:21.814Z,38.24
2022-11-15T10:53:26.124Z,38.21
2022-11-15T10:55:30.406Z,38.33
2022-11-15T10:57:34.705Z,38.37
2022-11-15T10:59:41.264Z,38.62
2022-11-15T11:01:45.715Z,38.45
2022-11-15T11:03:50.125Z,38.67
2022-11-15T11:05:54.629Z,38.24
2022-11-15T11:07:58.986Z,38.46
2022-11-15T11:10:03.657Z,38.65
2022-11-15T11:12:09.343Z,38.58
2022-11-15T11:14:13.718Z,38.53
2022-11-15T11:16:18.011Z,38.72
2022-11-15T11:18:22.401Z,38.59
2022-11-15T11:20:26.777Z,38.71
2022-11-15T11:22:31.110Z,38.59
2022-11-15T11:24:35.481Z,38.48
2022-11-15T11:26:39.813Z,38.64
2022-11-15T11:28:44.140Z,38.47
2022-11-15T11:30:48.492Z,38.52
2022-11-15T11:32:57.030Z,38.48
2022-11-15T11:35:01.380Z,38.48
2022-11-15T11:37:05.713Z,38.5
2022-11-15T11:39:10.028Z,38.57
2022-11-15T11:41:14.361Z,38.59
2022-11-15T11:43:18.717Z,38.49
2022-11-15T11:45:23.039Z,38.45
2022-11-15T11:47:27.411Z,38.54
2022-11-15T11:49:31.756Z,38.48
2022-11-15T11:51:36.100Z,38.44
2022-11-15T11:53:40.423Z,38.45
2022-11-15T11:55:44.726Z,38.5
2022-11-15T11:57:49.082Z,38.58
2022-11-15T11:59:53.429Z,38.71
2022-11-15T12:01:58.261Z,38.67
2022-11-15T12:04:02.591Z,38.87
2022-11-15T12:06:06.979Z,38.56
2022-11-15T12:08:11.329Z,38.88
2022-11-15T12:10:15.652Z,38.76
2022-11-15T12:12:20.017Z,38.9
2022-11-15T12:14:24.345Z,38.89
2022-11-15T12:16:28.693Z,38.86
2022-11-15T12:18:34.350Z,38.84
2022-11-15T12:20:38.949Z,38.83
2022-11-15T12:22:43.352Z,38.92
2022-11-15T12:24:47.640Z,39.02
2022-11-15T12:26:52.026Z,38.91
2022-11-15T12:29:10.212Z,38.94
2022-11-15T12:31:14.530Z,39.03
2022-11-15T12:33:18.909Z,39.11
2022-11-15T12:35:23.323Z,39.17
2022-11-15T12:37:27.644Z,39.02
2022-11-15T12:39:32.295Z,39.11
2022-11-15T12:41:36.660Z,38.84
2022-11-15T12:43:40.990Z,38.99
2022-11-15T12:45:45.331Z,39.04
2022-11-15T12:47:49.717Z,38.98
2022-11-15T12:49:54.149Z,39.04
2022-11-15T12:51:58.559Z,38.93
2022-11-15T12:54:02.933Z,38.91
2022-11-15T12:56:07.322Z,38.8
2022-11-15T12:58:11.684Z,38.92
2022-11-15T13:00:16.079Z,39.07
2022-11-15T13:02:20.430Z,39.4
2022-11-15T13:04:24.804Z,39.49
2022-11-15T13:06:29.142Z,39.67
2022-11-15T13:08:34.371Z,39.72
2022-11-15T13:10:38.712Z,39.99
2022-11-15T13:12:43.073Z,40.04
2022-11-15T13:14:47.428Z,40.12
2022-11-15T13:16:51.758Z,40.03
2022-11-15T13:18:56.186Z,39.9
2022-11-15T13:21:04.798Z,39.9
2022-11-15T13:23:09.096Z,39.95
2022-11-15T13:25:13.423Z,40.54
2022-11-15T13:27:17.784Z,40.2
2022-11-15T13:29:22.262Z,40.32
2022-11-15T13:31:26.567Z,40.38
2022-11-15T13:33:37.841Z,40.36
2022-11-15T13:35:42.154Z,40.07
2022-11-15T13:37:46.483Z,40.23
2022-11-15T13:39:50.887Z,40.09
2022-11-15T13:41:55.349Z,39.99
2022-11-15T13:43:59.586Z,40.09
2022-11-15T13:46:03.891Z,39.81
2022-11-15T13:48:08.258Z,39.91
2022-11-15T13:50:14.704Z,39.88
2022-11-15T13:52:19.024Z,40
2022-11-15T13:54:23.577Z,39.92
2022-11-15T13:56:27.913Z,39.74
2022-11-15T13:58:32.642Z,39.76
2022-11-15T14:00:37.254Z,40.15
2022-11-15T14:02:41.573Z,40.15
2022-11-15T14:04:45.910Z,40.35
2022-11-15T14:06:50.550Z,40.51
2022-11-15T14:08:54.975Z,40.23
2022-11-15T14:10:59.284Z,40.34
2022-11-15T14:13:03.582Z,40.25
2022-11-15T14:15:07.950Z,40.33
2022-11-15T14:17:12.296Z,40.34
2022-11-15T14:19:16.676Z,40.13
2022-11-15T14:21:21.141Z,40.08
2022-11-15T14:23:25.530Z,40.14
2022-11-15T14:25:29.904Z,40.01
2022-11-15T14:27:34.318Z,39.96
2022-11-15T14:29:38.664Z,39.89
2022-11-15T14:31:45.916Z,39.93
2022-11-15T14:33:50.312Z,39.81
2022-11-15T14:35:54.909Z,39.62
2022-11-15T14:37:59.219Z,39.66
2022-11-15T14:40:03.543Z,39.78
2022-11-15T14:42:07.896Z,39.84
2022-11-15T14:44:12.171Z,39.89
2022-11-15T14:46:16.492Z,40.67
2022-11-15T14:48:20.842Z,40.56
2022-11-15T14:50:25.178Z,40.51
2022-11-15T14:52:34.463Z,40.73
2022-11-15T14:54:38.776Z,40.97
2022-11-15T14:56:43.186Z,40.93
2022-11-15T14:58:47.480Z,40.98
2022-11-15T15:00:51.875Z,41.04
2022-11-15T15:02:56.241Z,41.29
2022-11-15T15:05:00.560Z,41.33
2022-11-15T15:07:05.296Z,41.07
2022-11-15T15:09:09.660Z,41.22
2022-11-15T15:11:14.019Z,41.18
2022-11-15T15:13:18.355Z,41.27
2022-11-15T15:15:22.677Z,41.31
2022-11-15T15:17:27.387Z,41.39
2022-11-15T15:19:31.748Z,41.37
2022-11-15T15:21:39.741Z,41.49
2022-11-15T15:23:44.125Z,41.47
2022-11-15T15:25:48.697Z,41.42
2022-11-15T15:27:53.060Z,41.51
2022-11-15T15:29:57.540Z,41.56
2022-11-15T15:32:01.851Z,41.67
2022-11-15T15:34:06.214Z,41.7
2022-11-15T15:36:10.551Z,41.77
2022-11-15T15:38:14.932Z,41.84
2022-11-15T15:40:19.272Z,41.71
2022-11-15T15:42:23.550Z,41.66
2022-11-15T15:44:27.899Z,41.74
2022-11-15T15:46:32.223Z,41.78
2022-11-15T15:48:37.288Z,41.73
2022-11-15T15:50:41.632Z,41.83
2022-11-15T15:52:45.982Z,41.62
2022-11-15T15:54:50.243Z,41.62
2022-11-15T15:56:58.331Z,41.66
2022-11-15T15:59:02.678Z,41.78
2022-11-15T16:01:07.421Z,41.67
2022-11-15T16:03:11.807Z,41.9
2022-11-15T16:05:16.095Z,41.71
2022-11-15T16:07:20.749Z,41.86
2022-11-15T16:09:26.158Z,41.81
2022-11-15T16:11:30.484Z,41.85
2022-11-15T16:13:34.818Z,41.83
2022-11-15T16:15:39.146Z,41.98
2022-11-15T16:17:43.461Z,41.85
2022-11-15T16:19:47.800Z,41.77
2022-11-15T16:21:52.266Z,41.8
2022-11-15T16:23:57.005Z,41.59
2022-11-15T16:26:01.346Z,41.79
2022-11-15T16:28:05.701Z,41.56
2022-11-15T16:30:10.173Z,41.64
2022-11-15T16:32:15.000Z,41.65
2022-11-15T16:34:19.443Z,41.92
2022-11-15T16:36:31.706Z,42.29
2022-11-15T16:38:37.674Z,41.86
2022-11-15T16:40:42.077Z,42.07
2022-11-15T16:42:46.414Z,42.16
2022-11-15T16:44:50.803Z,42.16
2022-11-15T16:46:55.119Z,42.04
2022-11-15T16:48:59.458Z,42.03
2022-11-15T16:51:03.861Z,42.02
2022-11-15T16:53:08.206Z,42.05
2022-11-15T16:55:12.539Z,42.04
2022-11-15T16:57:16.905Z,42
2022-11-15T16:59:21.293Z,42.07
2022-11-15T17:01:25.994Z,42.07
2022-11-15T17:03:30.484Z,41.93
2022-11-15T17:05:34.813Z,41.99
2022-11-15T17:07:39.582Z,42.01
2022-11-15T17:09:43.949Z,42.11
2022-11-15T17:11:48.261Z,42.08
2022-11-15T17:13:52.606Z,41.94
2022-11-15T17:15:56.966Z,42.03
2022-11-15T17:18:01.323Z,42.03
2022-11-15T17:20:05.752Z,41.85
2022-11-15T17:22:10.073Z,41.88
2022-11-15T17:24:14.458Z,42.71
2022-11-15T17:26:40.473Z,41.91
2022-11-15T17:28:45.262Z,41.67
2022-11-15T17:30:49.611Z,39.8
2022-11-15T17:32:53.902Z,39.43
2022-11-15T17:34:58.273Z,39.93
2022-11-15T17:37:02.596Z,38.77
2022-11-15T17:39:06.945Z,38.56
2022-11-15T17:41:11.296Z,39.4
2022-11-15T17:43:15.592Z,38.97
2022-11-15T17:45:19.933Z,39.25
2022-11-15T17:47:24.304Z,38.78
2022-11-15T17:49:28.798Z,39.05
2022-11-15T17:51:33.143Z,39.1
2022-11-15T17:53:37.474Z,38.56
2022-11-15T17:55:41.812Z,39.08
2022-11-15T17:57:46.175Z,39.01
2022-11-15T17:59:50.522Z,38.84
2022-11-15T18:01:54.950Z,39.24
2022-11-15T18:03:59.239Z,39.19
2022-11-15T18:06:03.589Z,38.89
2022-11-15T18:08:15.497Z,39.19
2022-11-15T18:10:19.948Z,38.9
2022-11-15T18:12:24.311Z,38.65
2022-11-15T18:14:28.656Z,38.78
2022-11-15T18:16:33.006Z,38.84
2022-11-15T18:18:38.108Z,38.71
2022-11-15T18:20:42.453Z,38.69
2022-11-15T18:22:46.812Z,38.63
2022-11-15T18:24:51.166Z,38.36
2022-11-15T18:26:55.510Z,38.12
2022-11-15T18:28:59.848Z,38.15
2022-11-15T18:31:04.546Z,37.96
2022-11-15T18:33:08.914Z,37.78
2022-11-15T18:35:13.454Z,37.89
2022-11-15T18:37:17.907Z,37.74
2022-11-15T18:39:22.268Z,37.29
2022-11-15T18:41:26.692Z,36.96
2022-11-15T18:43:31.668Z,36.81
2022-11-15T18:45:36.127Z,36.84
2022-11-15T18:47:40.559Z,36.88
2022-11-15T18:49:44.914Z,36.89
2022-11-15T18:51:49.277Z,36.56
2022-11-15T18:53:53.591Z,36.51
2022-11-15T18:55:57.949Z,36.54
2022-11-15T18:58:02.267Z,36.5
2022-11-15T19:00:06.888Z,36.57
2022-11-15T19:02:11.214Z,36.69
2022-11-15T19:04:15.593Z,36.72
2022-11-15T19:06:19.925Z,36.98
2022-11-15T19:08:24.704Z,37.14
2022-11-15T19:10:29.077Z,36.98
2022-11-15T19:12:33.441Z,37.31
2022-11-15T19:14:37.905Z,36.84
2022-11-15T19:16:42.286Z,37.12
2022-11-15T19:18:46.616Z,37.09
2022-11-15T19:20:51.005Z,36.82
2022-11-15T19:22:55.341Z,36.85
2022-11-15T19:24:59.731Z,37.13
2022-11-15T19:27:04.117Z,36.89
2022-11-15T19:29:08.448Z,36.76
2022-11-15T19:31:12.900Z,37.05
2022-11-15T19:33:17.267Z,37.07
2022-11-15T19:35:21.650Z,37.33
2022-11-15T19:37:26.042Z,38.11
2022-11-15T19:39:30.380Z,37.03
2022-11-15T19:41:34.688Z,37.32
2022-11-15T19:43:39.034Z,37.6
2022-11-15T19:45:43.381Z,37.41
2022-11-15T19:47:47.731Z,37.14
2022-11-15T19:49:52.080Z,37.02
2022-11-15T19:51:56.418Z,37.01
2022-11-15T19:54:00.806Z,37.23
2022-11-15T19:56:05.233Z,38.06
2022-11-15T19:58:09.779Z,37.45
2022-11-15T20:00:14.088Z,37.39
2022-11-15T20:02:18.425Z,38.02
2022-11-15T20:04:22.795Z,38.99
2022-11-15T20:06:27.174Z,37.86
2022-11-15T20:08:32.295Z,37.39
2022-11-15T20:10:36.921Z,37.65
2022-11-15T20:12:41.288Z,38.07
2022-11-15T20:14:46.015Z,37.31
2022-11-15T20:16:56.101Z,37.2
2022-11-15T20:19:00.478Z,37.6
2022-11-15T20:21:04.850Z,37.14
2022-11-15T20:23:09.208Z,37.57
2022-11-15T20:25:13.560Z,37.39
2022-11-15T20:27:17.925Z,37.27
2022-11-15T20:29:22.432Z,36.87
2022-11-15T20:31:26.743Z,37.12
2022-11-15T20:33:31.113Z,36.84
2022-11-15T20:35:35.543Z,37
2022-11-15T20:37:39.889Z,37.33
2022-11-15T20:39:44.267Z,37.48
2022-11-15T20:41:48.609Z,38.21
2022-11-15T20:43:52.981Z,37.57
2022-11-15T20:45:57.326Z,37.42
2022-11-15T20:48:01.638Z,37.36
2022-11-15T20:50:44.024Z,36.96
2022-11-15T20:52:48.468Z,36.87
2022-11-15T20:54:52.851Z,36.7
2022-11-15T20:56:57.212Z,36.31
2022-11-15T20:59:01.628Z,36.44
2022-11-15T21:01:06.555Z,36.36
2022-11-15T21:03:11.015Z,36.4
2022-11-15T21:05:15.421Z,37.01
2022-11-15T21:07:20.071Z,36.88
2022-11-15T21:09:24.496Z,37.22
2022-11-15T21:11:28.863Z,36.75
2022-11-15T21:13:33.159Z,36.63
2022-11-15T21:15:37.531Z,36.42
2022-11-15T21:17:41.875Z,36.89
2022-11-15T21:19:46.244Z,36.65
2022-11-15T21:21:50.604Z,36.43
2022-11-15T21:23:54.975Z,36.46
2022-11-15T21:25:59.372Z,36.53
2022-11-15T21:28:03.679Z,36.33
2022-11-15T21:30:08.219Z,36.19
2022-11-15T21:32:12.551Z,36.11
2022-11-15T21:34:17.144Z,37.08
2022-11-15T21:36:21.455Z,36.96
2022-11-15T21:38:25.787Z,36.48
2022-11-15T21:40:30.175Z,36.54
2022-11-15T21:42:34.497Z,37.2
2022-11-15T21:44:38.792Z,36.7
2022-11-15T21:46:43.130Z,36.29
2022-11-15T21:48:47.464Z,36.82
2022-11-15T21:50:51.804Z,36.43
2022-11-15T21:52:56.118Z,36.1
2022-11-15T21:55:00.429Z,36.14
2022-11-15T21:57:05.063Z,36.24
2022-11-15T21:59:09.405Z,36.66
2022-11-15T22:01:13.991Z,36.71
2022-11-15T22:03:18.451Z,36.92
2022-11-15T22:05:22.905Z,36.89
2022-11-15T22:07:27.629Z,37.33
2022-11-15T22:09:32.286Z,37.03
2022-11-15T22:11:36.682Z,36.72
2022-11-15T22:13:41.157Z,36.7
2022-11-15T22:15:45.831Z,37.17
2022-11-15T22:17:50.267Z,38.05
2022-11-15T22:19:55.195Z,37.33
2022-11-15T22:21:59.868Z,37
2022-11-15T22:24:04.461Z,36.88
2022-11-15T22:26:08.895Z,36.74
2022-11-15T22:28:13.394Z,36.62
2022-11-15T22:30:17.861Z,36.59
2022-11-15T22:32:22.297Z,36.47
2022-11-15T22:34:26.745Z,36.67
2022-11-15T22:37:20.195Z,36.39
2022-11-15T22:39:25.548Z,36.48
2022-11-15T22:41:29.946Z,36.5
2022-11-15T22:43:34.400Z,36.4
2022-11-15T22:45:38.846Z,36.36
2022-11-15T22:47:43.346Z,36.48
2022-11-15T22:49:47.750Z,36.43
2022-11-15T22:51:52.178Z,36.49
2022-11-15T22:53:56.580Z,36.44
2022-11-15T22:56:01.055Z,36.54
2022-11-15T22:58:05.507Z,36.67
2022-11-15T23:00:09.963Z,36.34
2022-11-15T23:02:14.508Z,36.28
2022-11-15T23:04:18.959Z,36.35
2022-11-15T23:06:23.423Z,36.39
2022-11-15T23:08:27.866Z,36.39
2022-11-15T23:10:32.282Z,36.39
2022-11-15T23:12:36.871Z,36.36
2022-11-15T23:14:41.382Z,36.4
2022-11-15T23:16:45.831Z,36.33
2022-11-15T23:18:50.237Z,36.42
2022-11-15T23:20:54.673Z,36.36
2022-11-15T23:22:59.087Z,36.46
2022-11-15T23:25:03.545Z,36.35
2022-11-15T23:27:07.984Z,36.41
2022-11-15T23:29:12.416Z,36.45
2022-11-15T23:31:16.804Z,36.54
2022-11-15T23:33:21.288Z,36.27
2022-11-15T23:35:25.721Z,36.13
2022-11-15T23:37:30.207Z,36.17
2022-11-15T23:39:34.657Z,36.17
2022-11-15T23:41:39.091Z,36.13
2022-11-15T23:43:43.547Z,36.13
2022-11-15T23:45:48.006Z,36.19
2022-11-15T23:48:00.048Z,35.96
2022-11-15T23:50:05.549Z,36.09
2022-11-15T23:52:09.964Z,36.04
2022-11-15T23:54:14.426Z,36.08
2022-11-15T23:56:18.903Z,36.2
2022-11-15T23:58:23.341Z,36.02
